sensor_id;sensor_type;location;lat;lon;timestamp;temperature;humidity
27747;DHT22;15138;51.012;4.692;2023-07-02T00:00:41;17.90;99.90
27747;DHT22;15138;51.012;4.692;2023-07-02T00:03:11;17.80;99.90
27747;DHT22;15138;51.012;4.692;2023-07-02T00:05:39;17.80;99.90
27747;DHT22;15138;51.012;4.692;2023-07-02T00:08:07;17.80;99.90
27747;DHT22;15138;51.012;4.692;2023-07-02T00:10:35;17.90;99.90
27747;DHT22;15138;51.012;4.692;2023-07-02T00:13:04;17.70;99.90
27747;DHT22;15138;51.012;4.692;2023-07-02T00:15:32;17.80;99.90
27747;DHT22;15138;51.012;4.692;2023-07-02T00:18:00;17.80;99.90
27747;DHT22;15138;51.012;4.692;2023-07-02T00:20:29;17.80;99.90
27747;DHT22;15138;51.012;4.692;2023-07-02T00:23:01;17.80;99.90
27747;DHT22;15138;51.012;4.692;2023-07-02T00:25:29;17.80;99.90
27747;DHT22;15138;51.012;4.692;2023-07-02T00:27:58;17.70;99.90
27747;DHT22;15138;51.012;4.692;2023-07-02T00:30:26;17.70;99.90
27747;DHT22;15138;51.012;4.692;2023-07-02T00:32:54;17.80;99.90
27747;DHT22;15138;51.012;4.692;2023-07-02T00:35:22;17.80;99.90
27747;DHT22;15138;51.012;4.692;2023-07-02T00:37:52;17.80;99.90
27747;DHT22;15138;51.012;4.692;2023-07-02T00:40:20;17.70;99.90
27747;DHT22;15138;51.012;4.692;2023-07-02T00:42:48;17.60;99.90
27747;DHT22;15138;51.012;4.692;2023-07-02T00:45:17;17.70;99.90
27747;DHT22;15138;51.012;4.692;2023-07-02T00:47:45;17.70;99.90
27747;DHT22;15138;51.012;4.692;2023-07-02T00:50:13;17.60;99.90
27747;DHT22;15138;51.012;4.692;2023-07-02T00:52:42;17.70;99.90
27747;DHT22;15138;51.012;4.692;2023-07-02T00:55:11;17.50;99.90
27747;DHT22;15138;51.012;4.692;2023-07-02T00:57:39;17.60;99.90
27747;DHT22;15138;51.012;4.692;2023-07-02T01:00:08;17.60;99.90
27747;DHT22;15138;51.012;4.692;2023-07-02T01:02:37;17.50;99.90
27747;DHT22;15138;51.012;4.692;2023-07-02T01:05:05;17.60;99.90
27747;DHT22;15138;51.012;4.692;2023-07-02T01:07:33;17.60;99.90
27747;DHT22;15138;51.012;4.692;2023-07-02T01:10:02;17.50;99.90
27747;DHT22;15138;51.012;4.692;2023-07-02T01:12:32;17.60;99.90
27747;DHT22;15138;51.012;4.692;2023-07-02T01:15:03;17.50;99.90
27747;DHT22;15138;51.012;4.692;2023-07-02T01:17:34;17.50;99.90
27747;DHT22;15138;51.012;4.692;2023-07-02T01:20:11;17.50;99.90
27747;DHT22;15138;51.012;4.692;2023-07-02T01:22:40;17.50;99.90
27747;DHT22;15138;51.012;4.692;2023-07-02T01:25:08;17.60;99.90
27747;DHT22;15138;51.012;4.692;2023-07-02T01:27:37;17.50;99.90
27747;DHT22;15138;51.012;4.692;2023-07-02T01:30:07;17.60;99.90
27747;DHT22;15138;51.012;4.692;2023-07-02T01:32:37;17.50;99.90
27747;DHT22;15138;51.012;4.692;2023-07-02T01:35:06;17.50;99.90
27747;DHT22;15138;51.012;4.692;2023-07-02T01:37:36;17.50;99.90
27747;DHT22;15138;51.012;4.692;2023-07-02T01:40:06;17.50;99.90
27747;DHT22;15138;51.012;4.692;2023-07-02T01:42:35;17.60;99.90
27747;DHT22;15138;51.012;4.692;2023-07-02T01:45:04;17.50;99.90
27747;DHT22;15138;51.012;4.692;2023-07-02T01:47:32;17.60;99.90
27747;DHT22;15138;51.012;4.692;2023-07-02T01:50:03;17.60;99.90
27747;DHT22;15138;51.012;4.692;2023-07-02T01:52:31;17.70;99.90
27747;DHT22;15138;51.012;4.692;2023-07-02T01:55:02;17.60;99.90
27747;DHT22;15138;51.012;4.692;2023-07-02T01:57:30;17.60;99.90
27747;DHT22;15138;51.012;4.692;2023-07-02T01:59:59;17.60;99.90
27747;DHT22;15138;51.012;4.692;2023-07-02T02:02:27;17.60;99.90
27747;DHT22;15138;51.012;4.692;2023-07-02T02:04:55;17.60;99.90
27747;DHT22;15138;51.012;4.692;2023-07-02T02:07:24;17.60;99.90
27747;DHT22;15138;51.012;4.692;2023-07-02T02:09:53;17.60;99.90
27747;DHT22;15138;51.012;4.692;2023-07-02T02:12:22;17.60;99.90
27747;DHT22;15138;51.012;4.692;2023-07-02T02:14:51;17.60;99.90
27747;DHT22;15138;51.012;4.692;2023-07-02T02:17:19;17.60;99.90
27747;DHT22;15138;51.012;4.692;2023-07-02T02:19:47;17.60;99.90
27747;DHT22;15138;51.012;4.692;2023-07-02T02:22:15;17.60;99.90
27747;DHT22;15138;51.012;4.692;2023-07-02T02:24:44;17.60;99.90
27747;DHT22;15138;51.012;4.692;2023-07-02T02:27:12;17.60;99.90
27747;DHT22;15138;51.012;4.692;2023-07-02T02:29:41;17.50;99.90
27747;DHT22;15138;51.012;4.692;2023-07-02T02:32:10;17.60;99.90
27747;DHT22;15138;51.012;4.692;2023-07-02T02:34:38;17.50;99.90
27747;DHT22;15138;51.012;4.692;2023-07-02T02:37:06;17.50;99.90
27747;DHT22;15138;51.012;4.692;2023-07-02T02:39:34;17.50;99.90
27747;DHT22;15138;51.012;4.692;2023-07-02T02:42:03;17.40;99.90
27747;DHT22;15138;51.012;4.692;2023-07-02T02:44:31;17.40;99.90
27747;DHT22;15138;51.012;4.692;2023-07-02T02:47:01;17.40;99.90
27747;DHT22;15138;51.012;4.692;2023-07-02T02:49:31;17.40;99.90
27747;DHT22;15138;51.012;4.692;2023-07-02T02:52:00;17.40;99.90
27747;DHT22;15138;51.012;4.692;2023-07-02T02:54:28;17.20;1.00
27747;DHT22;15138;51.012;4.692;2023-07-02T02:56:56;17.30;1.00
27747;DHT22;15138;51.012;4.692;2023-07-02T02:59:24;17.20;1.00
27747;DHT22;15138;51.012;4.692;2023-07-02T03:01:52;17.30;1.00
27747;DHT22;15138;51.012;4.692;2023-07-02T03:04:22;17.20;1.00
27747;DHT22;15138;51.012;4.692;2023-07-02T03:06:52;17.20;1.00
27747;DHT22;15138;51.012;4.692;2023-07-02T03:09:20;17.30;1.00
27747;DHT22;15138;51.012;4.692;2023-07-02T03:11:48;17.20;1.00
27747;DHT22;15138;51.012;4.692;2023-07-02T03:14:17;17.10;1.00
27747;DHT22;15138;51.012;4.692;2023-07-02T03:16:45;17.00;1.00
27747;DHT22;15138;51.012;4.692;2023-07-02T03:19:14;17.10;1.00
27747;DHT22;15138;51.012;4.692;2023-07-02T03:21:44;17.00;61.10
27747;DHT22;15138;51.012;4.692;2023-07-02T03:24:12;17.10;1.00
27747;DHT22;15138;51.012;4.692;2023-07-02T03:26:41;17.10;1.00
27747;DHT22;15138;51.012;4.692;2023-07-02T03:29:09;17.10;1.00
27747;DHT22;15138;51.012;4.692;2023-07-02T03:31:38;17.10;1.00
27747;DHT22;15138;51.012;4.692;2023-07-02T03:34:08;17.10;1.00
27747;DHT22;15138;51.012;4.692;2023-07-02T03:36:37;17.10;1.00
27747;DHT22;15138;51.012;4.692;2023-07-02T03:39:06;17.10;1.00
27747;DHT22;15138;51.012;4.692;2023-07-02T03:41:36;17.00;89.50
27747;DHT22;15138;51.012;4.692;2023-07-02T03:44:05;17.10;1.00
27747;DHT22;15138;51.012;4.692;2023-07-02T03:46:33;17.00;97.70
27747;DHT22;15138;51.012;4.692;2023-07-02T03:49:02;17.00;99.90
27747;DHT22;15138;51.012;4.692;2023-07-02T03:51:31;17.00;1.00
27747;DHT22;15138;51.012;4.692;2023-07-02T03:53:59;17.00;57.10
27747;DHT22;15138;51.012;4.692;2023-07-02T03:56:28;17.00;99.90
27747;DHT22;15138;51.012;4.692;2023-07-02T03:58:57;17.00;22.90
27747;DHT22;15138;51.012;4.692;2023-07-02T04:01:25;17.00;99.90
27747;DHT22;15138;51.012;4.692;2023-07-02T04:03:53;16.90;99.90
27747;DHT22;15138;51.012;4.692;2023-07-02T04:06:22;17.00;99.90
27747;DHT22;15138;51.012;4.692;2023-07-02T04:08:50;16.90;99.90
27747;DHT22;15138;51.012;4.692;2023-07-02T04:11:18;16.90;99.90
27747;DHT22;15138;51.012;4.692;2023-07-02T04:13:48;17.00;99.90
27747;DHT22;15138;51.012;4.692;2023-07-02T04:16:16;17.00;99.90
27747;DHT22;15138;51.012;4.692;2023-07-02T04:18:44;16.90;99.90
27747;DHT22;15138;51.012;4.692;2023-07-02T04:21:13;17.00;99.90
27747;DHT22;15138;51.012;4.692;2023-07-02T04:23:41;17.10;99.90
27747;DHT22;15138;51.012;4.692;2023-07-02T04:26:09;17.00;99.90
27747;DHT22;15138;51.012;4.692;2023-07-02T04:28:59;17.00;99.90
27747;DHT22;15138;51.012;4.692;2023-07-02T04:31:27;17.00;1.00
27747;DHT22;15138;51.012;4.692;2023-07-02T04:33:57;17.00;99.90
27747;DHT22;15138;51.012;4.692;2023-07-02T04:36:26;17.00;1.00
27747;DHT22;15138;51.012;4.692;2023-07-02T04:38:55;16.90;1.00
27747;DHT22;15138;51.012;4.692;2023-07-02T04:41:23;17.00;1.00
27747;DHT22;15138;51.012;4.692;2023-07-02T04:43:51;16.90;96.00
27747;DHT22;15138;51.012;4.692;2023-07-02T04:46:21;17.10;15.10
27747;DHT22;15138;51.012;4.692;2023-07-02T04:48:50;17.20;1.00
27747;DHT22;15138;51.012;4.692;2023-07-02T04:51:19;17.20;1.00
27747;DHT22;15138;51.012;4.692;2023-07-02T04:53:48;17.20;16.70
27747;DHT22;15138;51.012;4.692;2023-07-02T04:56:16;17.10;99.90
27747;DHT22;15138;51.012;4.692;2023-07-02T04:58:44;17.10;99.90
27747;DHT22;15138;51.012;4.692;2023-07-02T05:01:12;17.20;99.90
27747;DHT22;15138;51.012;4.692;2023-07-02T05:03:42;17.30;99.90
27747;DHT22;15138;51.012;4.692;2023-07-02T05:06:10;17.30;6.00
27747;DHT22;15138;51.012;4.692;2023-07-02T05:08:38;17.40;97.00
27747;DHT22;15138;51.012;4.692;2023-07-02T05:11:09;17.40;72.50
27747;DHT22;15138;51.012;4.692;2023-07-02T05:13:37;17.40;99.90
27747;DHT22;15138;51.012;4.692;2023-07-02T05:16:05;17.50;99.90
27747;DHT22;15138;51.012;4.692;2023-07-02T05:18:33;17.60;99.90
27747;DHT22;15138;51.012;4.692;2023-07-02T05:21:03;17.50;99.90
27747;DHT22;15138;51.012;4.692;2023-07-02T05:23:31;17.50;1.00
27747;DHT22;15138;51.012;4.692;2023-07-02T05:25:59;17.60;1.00
27747;DHT22;15138;51.012;4.692;2023-07-02T05:28:28;17.70;1.00
27747;DHT22;15138;51.012;4.692;2023-07-02T05:30:56;17.60;1.00
27747;DHT22;15138;51.012;4.692;2023-07-02T05:33:24;17.80;99.90
27747;DHT22;15138;51.012;4.692;2023-07-02T05:35:52;17.80;1.00
27747;DHT22;15138;51.012;4.692;2023-07-02T05:38:22;17.90;1.00
27747;DHT22;15138;51.012;4.692;2023-07-02T05:40:51;17.90;99.90
27747;DHT22;15138;51.012;4.692;2023-07-02T05:43:19;17.80;99.90
27747;DHT22;15138;51.012;4.692;2023-07-02T05:45:47;18.00;99.90
27747;DHT22;15138;51.012;4.692;2023-07-02T05:48:15;17.80;1.00
27747;DHT22;15138;51.012;4.692;2023-07-02T05:50:44;18.00;99.90
27747;DHT22;15138;51.012;4.692;2023-07-02T05:53:13;18.00;99.90
27747;DHT22;15138;51.012;4.692;2023-07-02T05:55:43;18.00;99.90
27747;DHT22;15138;51.012;4.692;2023-07-02T05:58:11;18.10;99.90
27747;DHT22;15138;51.012;4.692;2023-07-02T06:00:39;18.20;99.90
27747;DHT22;15138;51.012;4.692;2023-07-02T06:03:08;18.30;99.90
27747;DHT22;15138;51.012;4.692;2023-07-02T06:05:36;18.50;99.90
27747;DHT22;15138;51.012;4.692;2023-07-02T06:08:05;18.50;54.50
27747;DHT22;15138;51.012;4.692;2023-07-02T06:10:33;18.50;81.10
27747;DHT22;15138;51.012;4.692;2023-07-02T06:13:03;18.50;99.90
27747;DHT22;15138;51.012;4.692;2023-07-02T06:15:31;18.60;45.70
27747;DHT22;15138;51.012;4.692;2023-07-02T06:17:59;18.70;4.70
27747;DHT22;15138;51.012;4.692;2023-07-02T06:20:27;19.00;93.80
27747;DHT22;15138;51.012;4.692;2023-07-02T06:22:56;18.70;1.00
27747;DHT22;15138;51.012;4.692;2023-07-02T06:25:24;18.60;1.00
27747;DHT22;15138;51.012;4.692;2023-07-02T06:27:52;18.70;1.00
27747;DHT22;15138;51.012;4.692;2023-07-02T06:30:23;18.80;1.00
27747;DHT22;15138;51.012;4.692;2023-07-02T06:32:53;18.90;1.00
27747;DHT22;15138;51.012;4.692;2023-07-02T06:35:22;18.80;1.00
27747;DHT22;15138;51.012;4.692;2023-07-02T06:37:50;19.00;1.00
27747;DHT22;15138;51.012;4.692;2023-07-02T06:40:20;19.20;1.00
27747;DHT22;15138;51.012;4.692;2023-07-02T06:42:49;19.30;1.00
27747;DHT22;15138;51.012;4.692;2023-07-02T06:45:17;19.60;1.00
27747;DHT22;15138;51.012;4.692;2023-07-02T06:47:47;19.70;99.90
27747;DHT22;15138;51.012;4.692;2023-07-02T06:50:15;19.90;99.90
27747;DHT22;15138;51.012;4.692;2023-07-02T06:52:43;20.20;99.90
27747;DHT22;15138;51.012;4.692;2023-07-02T06:55:11;20.30;99.90
27747;DHT22;15138;51.012;4.692;2023-07-02T06:57:43;20.20;99.90
27747;DHT22;15138;51.012;4.692;2023-07-02T07:00:13;20.20;99.90
27747;DHT22;15138;51.012;4.692;2023-07-02T07:02:41;20.30;99.90
27747;DHT22;15138;51.012;4.692;2023-07-02T07:05:11;19.90;99.90
27747;DHT22;15138;51.012;4.692;2023-07-02T07:07:39;20.20;1.00
27747;DHT22;15138;51.012;4.692;2023-07-02T07:10:08;20.20;1.00
27747;DHT22;15138;51.012;4.692;2023-07-02T07:15:05;20.10;99.90
27747;DHT22;15138;51.012;4.692;2023-07-02T07:17:33;20.00;1.00
27747;DHT22;15138;51.012;4.692;2023-07-02T07:20:02;20.00;99.90
27747;DHT22;15138;51.012;4.692;2023-07-02T07:22:33;20.40;1.00
27747;DHT22;15138;51.012;4.692;2023-07-02T07:25:01;20.10;99.90
27747;DHT22;15138;51.012;4.692;2023-07-02T07:27:29;20.30;99.90
27747;DHT22;15138;51.012;4.692;2023-07-02T07:29:57;20.60;99.90
27747;DHT22;15138;51.012;4.692;2023-07-02T07:32:26;20.80;99.90
27747;DHT22;15138;51.012;4.692;2023-07-02T07:34:54;20.70;99.90
27747;DHT22;15138;51.012;4.692;2023-07-02T07:37:22;20.60;99.90
27747;DHT22;15138;51.012;4.692;2023-07-02T07:39:53;20.90;99.90
27747;DHT22;15138;51.012;4.692;2023-07-02T07:42:21;20.90;99.90
27747;DHT22;15138;51.012;4.692;2023-07-02T07:44:49;20.90;99.90
27747;DHT22;15138;51.012;4.692;2023-07-02T07:47:18;20.80;67.50
27747;DHT22;15138;51.012;4.692;2023-07-02T07:49:46;21.10;99.90
27747;DHT22;15138;51.012;4.692;2023-07-02T07:52:14;21.10;99.90
27747;DHT22;15138;51.012;4.692;2023-07-02T07:54:42;21.20;66.70
27747;DHT22;15138;51.012;4.692;2023-07-02T07:57:12;20.60;99.90
27747;DHT22;15138;51.012;4.692;2023-07-02T07:59:40;20.90;99.90
27747;DHT22;15138;51.012;4.692;2023-07-02T08:02:09;21.00;99.90
27747;DHT22;15138;51.012;4.692;2023-07-02T08:04:37;21.10;99.90
27747;DHT22;15138;51.012;4.692;2023-07-02T08:07:05;21.10;1.00
27747;DHT22;15138;51.012;4.692;2023-07-02T08:09:36;21.00;99.90
27747;DHT22;15138;51.012;4.692;2023-07-02T08:12:04;20.80;98.60
27747;DHT22;15138;51.012;4.692;2023-07-02T08:14:34;20.80;1.00
27747;DHT22;15138;51.012;4.692;2023-07-02T08:17:03;21.20;1.00
27747;DHT22;15138;51.012;4.692;2023-07-02T08:19:31;21.30;1.00
27747;DHT22;15138;51.012;4.692;2023-07-02T08:21:59;21.10;1.00
27747;DHT22;15138;51.012;4.692;2023-07-02T08:24:28;21.40;1.00
27747;DHT22;15138;51.012;4.692;2023-07-02T08:26:58;21.70;1.00
27747;DHT22;15138;51.012;4.692;2023-07-02T08:29:26;21.70;1.00
27747;DHT22;15138;51.012;4.692;2023-07-02T08:31:55;22.10;1.00
27747;DHT22;15138;51.012;4.692;2023-07-02T08:34:24;22.30;8.10
27747;DHT22;15138;51.012;4.692;2023-07-02T08:36:52;22.40;1.00
27747;DHT22;15138;51.012;4.692;2023-07-02T08:39:20;22.40;1.00
27747;DHT22;15138;51.012;4.692;2023-07-02T08:41:48;22.60;99.90
27747;DHT22;15138;51.012;4.692;2023-07-02T08:44:20;22.50;1.00
27747;DHT22;15138;51.012;4.692;2023-07-02T08:46:49;22.60;1.00
27747;DHT22;15138;51.012;4.692;2023-07-02T08:51:50;22.90;99.90
27747;DHT22;15138;51.012;4.692;2023-07-02T08:54:18;22.50;99.90
27747;DHT22;15138;51.012;4.692;2023-07-02T08:56:47;22.50;58.10
27747;DHT22;15138;51.012;4.692;2023-07-02T08:59:15;22.90;27.00
27747;DHT22;15138;51.012;4.692;2023-07-02T09:01:47;23.60;1.00
27747;DHT22;15138;51.012;4.692;2023-07-02T09:04:17;24.00;1.00
27747;DHT22;15138;51.012;4.692;2023-07-02T09:06:48;24.00;1.00
27747;DHT22;15138;51.012;4.692;2023-07-02T09:09:16;23.20;1.00
27747;DHT22;15138;51.012;4.692;2023-07-02T09:11:48;22.60;1.00
27747;DHT22;15138;51.012;4.692;2023-07-02T09:14:24;23.10;1.00
27747;DHT22;15138;51.012;4.692;2023-07-02T09:17:04;23.60;1.00
27747;DHT22;15138;51.012;4.692;2023-07-02T09:19:33;23.90;1.00
27747;DHT22;15138;51.012;4.692;2023-07-02T09:22:04;23.60;1.00
27747;DHT22;15138;51.012;4.692;2023-07-02T09:24:32;24.20;1.00
27747;DHT22;15138;51.012;4.692;2023-07-02T09:27:01;24.70;1.00
27747;DHT22;15138;51.012;4.692;2023-07-02T09:29:31;24.60;1.00
27747;DHT22;15138;51.012;4.692;2023-07-02T09:32:00;24.40;1.00
27747;DHT22;15138;51.012;4.692;2023-07-02T09:34:38;24.50;1.00
27747;DHT22;15138;51.012;4.692;2023-07-02T09:37:10;24.60;23.60
27747;DHT22;15138;51.012;4.692;2023-07-02T09:39:38;24.40;1.00
27747;DHT22;15138;51.012;4.692;2023-07-02T09:42:07;24.80;1.00
27747;DHT22;15138;51.012;4.692;2023-07-02T09:44:36;25.30;1.00
27747;DHT22;15138;51.012;4.692;2023-07-02T09:47:07;25.20;1.00
27747;DHT22;15138;51.012;4.692;2023-07-02T09:49:36;25.20;1.00
27747;DHT22;15138;51.012;4.692;2023-07-02T09:52:06;25.30;1.00
27747;DHT22;15138;51.012;4.692;2023-07-02T09:54:37;24.40;1.00
27747;DHT22;15138;51.012;4.692;2023-07-02T09:57:06;23.40;1.00
27747;DHT22;15138;51.012;4.692;2023-07-02T09:59:34;24.00;1.00
27747;DHT22;15138;51.012;4.692;2023-07-02T10:02:03;23.90;1.00
27747;DHT22;15138;51.012;4.692;2023-07-02T10:04:40;23.50;1.00
27747;DHT22;15138;51.012;4.692;2023-07-02T10:07:08;23.90;1.00
27747;DHT22;15138;51.012;4.692;2023-07-02T10:09:39;24.50;1.00
27747;DHT22;15138;51.012;4.692;2023-07-02T10:12:21;25.10;1.00
27747;DHT22;15138;51.012;4.692;2023-07-02T10:14:50;24.80;1.00
27747;DHT22;15138;51.012;4.692;2023-07-02T10:17:26;24.00;1.00
27747;DHT22;15138;51.012;4.692;2023-07-02T10:19:57;23.60;1.00
27747;DHT22;15138;51.012;4.692;2023-07-02T10:22:26;23.50;1.00
27747;DHT22;15138;51.012;4.692;2023-07-02T10:24:56;23.40;1.00
27747;DHT22;15138;51.012;4.692;2023-07-02T10:27:34;23.20;1.00
27747;DHT22;15138;51.012;4.692;2023-07-02T10:30:03;22.80;1.00
27747;DHT22;15138;51.012;4.692;2023-07-02T10:32:33;22.30;1.00
27747;DHT22;15138;51.012;4.692;2023-07-02T10:35:12;22.90;1.00
27747;DHT22;15138;51.012;4.692;2023-07-02T10:37:41;23.20;1.00
27747;DHT22;15138;51.012;4.692;2023-07-02T10:40:11;23.30;1.00
27747;DHT22;15138;51.012;4.692;2023-07-02T10:42:47;23.80;99.90
27747;DHT22;15138;51.012;4.692;2023-07-02T10:45:15;24.10;1.00
27747;DHT22;15138;51.012;4.692;2023-07-02T10:47:43;24.10;1.00
27747;DHT22;15138;51.012;4.692;2023-07-02T10:50:19;23.60;1.00
27747;DHT22;15138;51.012;4.692;2023-07-02T10:52:48;23.90;1.00
27747;DHT22;15138;51.012;4.692;2023-07-02T10:55:19;23.70;1.00
27747;DHT22;15138;51.012;4.692;2023-07-02T10:57:48;23.70;1.00
27747;DHT22;15138;51.012;4.692;2023-07-02T11:00:18;23.40;1.00
27747;DHT22;15138;51.012;4.692;2023-07-02T11:02:48;23.40;1.00
27747;DHT22;15138;51.012;4.692;2023-07-02T11:05:16;23.70;1.00
27747;DHT22;15138;51.012;4.692;2023-07-02T11:07:44;23.50;1.00
27747;DHT22;15138;51.012;4.692;2023-07-02T11:10:19;23.00;1.00
27747;DHT22;15138;51.012;4.692;2023-07-02T11:12:48;23.00;1.00
27747;DHT22;15138;51.012;4.692;2023-07-02T11:15:17;22.60;1.00
27747;DHT22;15138;51.012;4.692;2023-07-02T11:17:45;23.60;1.00
27747;DHT22;15138;51.012;4.692;2023-07-02T11:20:14;23.80;1.00
27747;DHT22;15138;51.012;4.692;2023-07-02T11:22:43;24.30;1.00
27747;DHT22;15138;51.012;4.692;2023-07-02T11:25:17;24.40;1.00
27747;DHT22;15138;51.012;4.692;2023-07-02T11:27:47;24.30;1.00
27747;DHT22;15138;51.012;4.692;2023-07-02T11:30:15;24.40;1.00
27747;DHT22;15138;51.012;4.692;2023-07-02T11:32:47;24.20;1.00
27747;DHT22;15138;51.012;4.692;2023-07-02T11:35:19;24.70;1.00
27747;DHT22;15138;51.012;4.692;2023-07-02T11:37:48;24.50;1.00
27747;DHT22;15138;51.012;4.692;2023-07-02T11:40:17;24.40;1.00
27747;DHT22;15138;51.012;4.692;2023-07-02T11:42:48;24.00;1.00
27747;DHT22;15138;51.012;4.692;2023-07-02T11:45:16;23.60;1.00
27747;DHT22;15138;51.012;4.692;2023-07-02T11:47:44;23.70;1.00
27747;DHT22;15138;51.012;4.692;2023-07-02T11:50:13;23.50;1.00
27747;DHT22;15138;51.012;4.692;2023-07-02T11:52:52;23.90;1.00
27747;DHT22;15138;51.012;4.692;2023-07-02T11:55:21;24.30;1.00
27747;DHT22;15138;51.012;4.692;2023-07-02T11:57:50;25.10;1.00
27747;DHT22;15138;51.012;4.692;2023-07-02T12:00:19;25.50;1.00
27747;DHT22;15138;51.012;4.692;2023-07-02T12:02:48;25.60;1.00
27747;DHT22;15138;51.012;4.692;2023-07-02T12:05:16;24.90;1.00
27747;DHT22;15138;51.012;4.692;2023-07-02T12:07:45;25.30;1.00
27747;DHT22;15138;51.012;4.692;2023-07-02T12:10:13;24.90;1.00
27747;DHT22;15138;51.012;4.692;2023-07-02T12:12:41;25.30;1.00
27747;DHT22;15138;51.012;4.692;2023-07-02T12:15:11;25.20;1.00
27747;DHT22;15138;51.012;4.692;2023-07-02T12:17:39;25.50;1.00
27747;DHT22;15138;51.012;4.692;2023-07-02T12:20:08;25.70;99.90
27747;DHT22;15138;51.012;4.692;2023-07-02T12:22:37;25.90;99.90
27747;DHT22;15138;51.012;4.692;2023-07-02T12:25:05;25.70;99.90
27747;DHT22;15138;51.012;4.692;2023-07-02T12:27:34;25.90;99.90
27747;DHT22;15138;51.012;4.692;2023-07-02T12:30:02;26.20;99.90
27747;DHT22;15138;51.012;4.692;2023-07-02T12:32:32;26.00;99.90
27747;DHT22;15138;51.012;4.692;2023-07-02T12:35:01;25.90;99.90
27747;DHT22;15138;51.012;4.692;2023-07-02T12:37:31;25.70;99.90
27747;DHT22;15138;51.012;4.692;2023-07-02T12:40:00;26.20;99.90
27747;DHT22;15138;51.012;4.692;2023-07-02T12:42:28;26.70;99.90
27747;DHT22;15138;51.012;4.692;2023-07-02T12:44:56;26.90;99.90
27747;DHT22;15138;51.012;4.692;2023-07-02T12:47:24;27.20;99.90
27747;DHT22;15138;51.012;4.692;2023-07-02T12:49:54;26.60;99.90
27747;DHT22;15138;51.012;4.692;2023-07-02T12:52:22;25.90;99.90
27747;DHT22;15138;51.012;4.692;2023-07-02T12:54:50;26.30;99.90
27747;DHT22;15138;51.012;4.692;2023-07-02T12:57:19;26.70;99.90
27747;DHT22;15138;51.012;4.692;2023-07-02T12:59:47;26.80;99.90
27747;DHT22;15138;51.012;4.692;2023-07-02T13:02:15;25.70;99.90
27747;DHT22;15138;51.012;4.692;2023-07-02T13:04:43;25.30;99.90
27747;DHT22;15138;51.012;4.692;2023-07-02T13:07:13;26.40;99.90
27747;DHT22;15138;51.012;4.692;2023-07-02T13:09:42;26.30;99.90
27747;DHT22;15138;51.012;4.692;2023-07-02T13:12:10;25.90;99.90
27747;DHT22;15138;51.012;4.692;2023-07-02T13:14:39;26.50;1.00
27747;DHT22;15138;51.012;4.692;2023-07-02T13:17:07;27.00;1.00
27747;DHT22;15138;51.012;4.692;2023-07-02T13:19:35;26.20;99.90
27747;DHT22;15138;51.012;4.692;2023-07-02T13:22:04;27.00;1.00
27747;DHT22;15138;51.012;4.692;2023-07-02T13:24:34;27.40;99.90
27747;DHT22;15138;51.012;4.692;2023-07-02T13:27:05;27.80;99.90
27747;DHT22;15138;51.012;4.692;2023-07-02T13:29:35;27.50;99.90
27747;DHT22;15138;51.012;4.692;2023-07-02T13:32:03;27.10;99.90
27747;DHT22;15138;51.012;4.692;2023-07-02T13:34:32;27.20;99.90
27747;DHT22;15138;51.012;4.692;2023-07-02T13:37:00;28.10;99.90
27747;DHT22;15138;51.012;4.692;2023-07-02T13:39:30;27.80;99.90
27747;DHT22;15138;51.012;4.692;2023-07-02T13:41:59;28.00;99.90
27747;DHT22;15138;51.012;4.692;2023-07-02T13:44:28;27.40;99.90
27747;DHT22;15138;51.012;4.692;2023-07-02T13:46:56;27.70;99.90
27747;DHT22;15138;51.012;4.692;2023-07-02T13:49:24;27.30;99.90
27747;DHT22;15138;51.012;4.692;2023-07-02T13:51:52;27.10;99.90
27747;DHT22;15138;51.012;4.692;2023-07-02T13:54:21;27.10;99.90
27747;DHT22;15138;51.012;4.692;2023-07-02T13:56:49;26.80;99.90
27747;DHT22;15138;51.012;4.692;2023-07-02T13:59:19;27.50;99.90
27747;DHT22;15138;51.012;4.692;2023-07-02T14:01:48;27.70;99.90
27747;DHT22;15138;51.012;4.692;2023-07-02T14:04:17;27.60;99.90
27747;DHT22;15138;51.012;4.692;2023-07-02T14:06:46;27.60;99.90
27747;DHT22;15138;51.012;4.692;2023-07-02T14:09:14;26.90;99.90
27747;DHT22;15138;51.012;4.692;2023-07-02T14:11:43;26.00;99.90
27747;DHT22;15138;51.012;4.692;2023-07-02T14:14:11;26.40;99.90
27747;DHT22;15138;51.012;4.692;2023-07-02T14:16:41;26.70;99.90
27747;DHT22;15138;51.012;4.692;2023-07-02T14:19:09;27.20;99.90
27747;DHT22;15138;51.012;4.692;2023-07-02T14:21:39;26.60;99.90
27747;DHT22;15138;51.012;4.692;2023-07-02T14:24:07;27.10;99.90
27747;DHT22;15138;51.012;4.692;2023-07-02T14:26:36;27.10;99.90
27747;DHT22;15138;51.012;4.692;2023-07-02T14:29:04;27.50;99.90
27747;DHT22;15138;51.012;4.692;2023-07-02T14:31:32;27.60;99.90
27747;DHT22;15138;51.012;4.692;2023-07-02T14:34:02;28.10;99.90
27747;DHT22;15138;51.012;4.692;2023-07-02T14:36:30;28.00;99.90
27747;DHT22;15138;51.012;4.692;2023-07-02T14:38:58;28.20;99.90
27747;DHT22;15138;51.012;4.692;2023-07-02T14:41:26;28.20;99.90
27747;DHT22;15138;51.012;4.692;2023-07-02T14:43:57;28.10;99.90
27747;DHT22;15138;51.012;4.692;2023-07-02T14:46:25;27.70;99.90
27747;DHT22;15138;51.012;4.692;2023-07-02T14:48:54;27.40;99.90
27747;DHT22;15138;51.012;4.692;2023-07-02T14:51:24;27.30;99.90
27747;DHT22;15138;51.012;4.692;2023-07-02T14:53:52;27.30;99.90
27747;DHT22;15138;51.012;4.692;2023-07-02T14:56:22;26.50;99.90
27747;DHT22;15138;51.012;4.692;2023-07-02T14:58:50;26.90;99.90
27747;DHT22;15138;51.012;4.692;2023-07-02T15:01:19;27.00;99.90
27747;DHT22;15138;51.012;4.692;2023-07-02T15:03:47;27.30;99.90
27747;DHT22;15138;51.012;4.692;2023-07-02T15:06:17;26.90;99.90
27747;DHT22;15138;51.012;4.692;2023-07-02T15:08:47;27.00;99.90
27747;DHT22;15138;51.012;4.692;2023-07-02T15:11:16;27.00;99.90
27747;DHT22;15138;51.012;4.692;2023-07-02T15:13:45;26.90;99.90
27747;DHT22;15138;51.012;4.692;2023-07-02T15:16:13;27.10;99.90
27747;DHT22;15138;51.012;4.692;2023-07-02T15:18:44;27.70;99.90
27747;DHT22;15138;51.012;4.692;2023-07-02T15:21:12;27.60;99.90
27747;DHT22;15138;51.012;4.692;2023-07-02T15:23:41;27.30;99.90
27747;DHT22;15138;51.012;4.692;2023-07-02T15:26:10;26.30;99.90
27747;DHT22;15138;51.012;4.692;2023-07-02T15:28:39;25.70;99.90
27747;DHT22;15138;51.012;4.692;2023-07-02T15:31:09;26.30;99.90
27747;DHT22;15138;51.012;4.692;2023-07-02T15:33:38;26.40;99.90
27747;DHT22;15138;51.012;4.692;2023-07-02T15:36:07;26.40;99.90
27747;DHT22;15138;51.012;4.692;2023-07-02T15:38:36;26.00;99.90
27747;DHT22;15138;51.012;4.692;2023-07-02T15:41:11;26.10;99.90
27747;DHT22;15138;51.012;4.692;2023-07-02T15:43:40;25.80;99.90
27747;DHT22;15138;51.012;4.692;2023-07-02T15:46:09;25.80;99.90
27747;DHT22;15138;51.012;4.692;2023-07-02T15:48:37;25.90;99.90
27747;DHT22;15138;51.012;4.692;2023-07-02T15:51:07;26.20;99.90
27747;DHT22;15138;51.012;4.692;2023-07-02T15:53:40;25.60;99.90